79°F Temp
75°F Dewpoint
% Humidity
Temperature
12 MPH
19 KM/H
10 KTS
160°
South South
East

Wind Speed
Mostly Scattered
Clouds
Pressure 1008.82 (hPa) - 29.79 (in)
Visibility 10.0 (mi) - 16.1 (km)

Current Conditions
KIAH
Location 12(mi)
Metar :KIAH 181153Z 16010KT 10SM SCT015 BKN022 BKN043 BKN250 26/24 A2979 RMK AO2 SLP086 60000 T02560239 10256 20250 56006
Sat 18th May 06:53 am

Airport
  Metar Aviation API Data Provided by https://www.checkwx.com/ PHP scripts by weather34.com ©2019